Time;durP1;ratioP1;P1;durP2;ratioP2;P2;SDS_P1;SDS_P2;PMS_P1;PMS_P2;Temp;Humidity;BMP_temperature;BMP_pressure;BME280_temperature;BME280_humidity;BME280_pressure;Samples;Min_cycle;Max_cycle;Signal;HPM_P1;HPM_P2
2022/01/13 00:01:40;;;;;;;27.40;14.55;;;;;;;;;;5073684;28;20778;-67
2022/01/13 00:04:08;;;;;;;27.08;14.77;;;;;;;;;;5073584;28;20214;-68
2022/01/13 00:06:34;;;;;;;26.10;14.33;;;;;;;;;;5073639;28;20623;-67
2022/01/13 00:09:00;;;;;;;21.80;14.30;;;;;;;;;;5073427;28;20496;-68
2022/01/13 00:11:26;;;;;;;25.30;13.87;;;;;;;;;;5055601;28;20405;-69
2022/01/13 00:14:10;;;;;;;25.23;14.03;;;;;;;;;;5073551;28;20535;-67
2022/01/13 00:16:40;;;;;;;23.88;14.18;;;;;;;;;;5073496;28;20393;-67
2022/01/13 00:21:46;;;;;;;24.90;14.45;;;;;;;;;;5073418;28;20410;-67
2022/01/13 00:24:13;;;;;;;27.23;15.95;;;;;;;;;;5073240;28;20215;-68
2022/01/13 00:26:40;;;;;;;26.73;15.60;;;;;;;;;;5073214;28;20179;-68
2022/01/13 00:29:07;;;;;;;29.00;17.37;;;;;;;;;;5055238;28;20417;-67
2022/01/13 00:31:36;;;;;;;30.33;18.20;;;;;;;;;;5073336;28;20768;-68
2022/01/13 00:34:04;;;;;;;31.53;18.07;;;;;;;;;;5073323;28;20434;-68
2022/01/13 00:36:31;;;;;;;30.20;16.83;;;;;;;;;;5073216;28;20407;-68
2022/01/13 00:38:58;;;;;;;30.58;18.38;;;;;;;;;;5073113;28;20174;-68
2022/01/13 00:41:27;;;;;;;30.67;17.52;;;;;;;;;;5073172;28;20175;-67
2022/01/13 00:43:54;;;;;;;29.70;18.07;;;;;;;;;;5073062;28;20299;-70
2022/01/13 00:46:25;;;;;;;28.47;16.70;;;;;;;;;;5073222;28;20432;-67
2022/01/13 00:48:51;;;;;;;32.33;18.80;;;;;;;;;;5072958;28;20398;-68
2022/01/13 00:51:18;;;;;;;25.47;16.47;;;;;;;;;;5073125;28;20412;-69
2022/01/13 00:53:44;;;;;;;26.30;16.87;;;;;;;;;;5073108;28;20398;-69
2022/01/13 00:56:10;;;;;;;28.60;16.87;;;;;;;;;;5073054;28;20417;-68
2022/01/13 00:58:37;;;;;;;28.40;16.50;;;;;;;;;;5072802;28;20453;-68
2022/01/13 01:01:04;;;;;;;28.53;16.53;;;;;;;;;;5055050;28;20428;-69
2022/01/13 01:03:30;;;;;;;26.77;16.60;;;;;;;;;;5072865;28;20511;-67
2022/01/13 01:05:57;;;;;;;26.57;17.10;;;;;;;;;;5054883;28;20460;-68
2022/01/13 01:08:23;;;;;;;26.63;15.67;;;;;;;;;;5072742;28;20414;-67
2022/01/13 01:10:52;;;;;;;28.70;17.00;;;;;;;;;;5056143;28;20397;-68
2022/01/13 01:13:22;;;;;;;32.20;18.57;;;;;;;;;;5058890;28;20420;-68
2022/01/13 01:15:51;;;;;;;33.07;18.47;;;;;;;;;;5059109;28;20418;-68
2022/01/13 01:18:38;;;;;;;29.53;18.60;;;;;;;;;;5076880;28;20405;-67
2022/01/13 01:31:39;;;;;;;30.33;17.13;;;;;;;;;;5076670;28;20391;-67
2022/01/13 01:36:41;;;;;;;27.60;15.83;;;;;;;;;;5076618;28;20429;-67
2022/01/13 01:39:08;;;;;;;24.17;16.10;;;;;;;;;;5076545;28;20427;-68
2022/01/13 01:41:43;;;;;;;26.57;15.03;;;;;;;;;;5058459;28;20413;-67
2022/01/13 01:44:09;;;;;;;24.33;14.83;;;;;;;;;;5076313;28;20518;-68
2022/01/13 01:46:40;;;;;;;30.60;16.27;;;;;;;;;;5058438;28;20528;-68
2022/01/13 01:49:18;;;;;;;26.27;15.00;;;;;;;;;;5076086;28;20431;-68
2022/01/13 01:51:44;;;;;;;23.67;15.03;;;;;;;;;;5076274;28;20426;-68
2022/01/13 01:54:10;;;;;;;28.33;16.60;;;;;;;;;;5076216;28;20430;-69
2022/01/13 01:56:37;;;;;;;28.07;15.53;;;;;;;;;;5076244;28;20410;-67
2022/01/13 01:59:05;;;;;;;28.30;15.23;;;;;;;;;;5075909;28;20461;-67
2022/01/13 02:01:31;;;;;;;27.97;17.03;;;;;;;;;;5076005;28;20404;-69
2022/01/13 02:03:57;;;;;;;32.77;18.10;;;;;;;;;;5075941;28;20468;-68
2022/01/13 02:06:23;;;;;;;26.80;17.17;;;;;;;;;;5058094;28;20504;-68
2022/01/13 02:08:49;;;;;;;28.23;17.47;;;;;;;;;;5075969;28;20419;-68
2022/01/13 02:11:15;;;;;;;26.13;16.57;;;;;;;;;;5075854;28;20394;-68
2022/01/13 02:13:48;;;;;;;31.33;18.07;;;;;;;;;;5075825;28;20405;-68
2022/01/13 02:18:55;;;;;;;29.50;18.40;;;;;;;;;;5075756;28;20406;-69
2022/01/13 02:21:24;;;;;;;30.57;19.10;;;;;;;;;;5057234;28;20450;-68
2022/01/13 02:23:50;;;;;;;31.30;19.00;;;;;;;;;;5075697;28;20520;-69
2022/01/13 02:26:16;;;;;;;33.83;19.85;;;;;;;;;;5057755;28;20409;-68
2022/01/13 02:28:43;;;;;;;31.60;19.63;;;;;;;;;;5075411;28;20216;-67
2022/01/13 02:31:09;;;;;;;34.53;20.30;;;;;;;;;;5057638;28;20746;-68
2022/01/13 02:33:35;;;;;;;39.30;20.40;;;;;;;;;;5075554;28;20409;-68
2022/01/13 02:36:02;;;;;;;32.30;18.30;;;;;;;;;;5057508;28;20175;-69
2022/01/13 02:38:28;;;;;;;36.00;19.93;;;;;;;;;;5075373;28;20397;-67
2022/01/13 02:40:55;;;;;;;34.33;19.83;;;;;;;;;;5075454;28;20406;-68
2022/01/13 02:43:22;;;;;;;29.53;17.13;;;;;;;;;;5075271;28;20835;-67
2022/01/13 02:46:31;;;;;;;36.57;19.37;;;;;;;;;;5075294;28;20405;-67
2022/01/13 02:48:38;;;;;;;32.33;18.75;;;;;;;;;;5064141;28;20513;-69
2022/01/13 02:51:04;;;;;;;31.07;19.10;;;;;;;;;;5075137;28;20650;-68
2022/01/13 02:53:30;;;;;;;34.03;19.88;;;;;;;;;;5057174;28;20498;-68
2022/01/13 02:56:01;;;;;;;39.37;18.83;;;;;;;;;;5057118;28;20197;-68
2022/01/13 02:58:28;;;;;;;34.90;19.60;;;;;;;;;;5074892;28;20508;-68
2022/01/13 03:00:54;;;;;;;33.55;18.83;;;;;;;;;;5075052;28;20172;-68
2022/01/13 03:03:20;;;;;;;29.77;18.83;;;;;;;;;;5074891;28;20274;-69
2022/01/13 03:05:46;;;;;;;29.58;18.13;;;;;;;;;;5074921;28;20180;-67
2022/01/13 03:08:12;;;;;;;29.50;18.02;;;;;;;;;;5074536;28;20666;-69
2022/01/13 03:10:38;;;;;;;35.08;19.77;;;;;;;;;;5074843;28;20172;-67
2022/01/13 03:13:06;;;;;;;31.83;18.85;;;;;;;;;;5074680;28;20169;-68
2022/01/13 03:15:32;;;;;;;35.63;20.63;;;;;;;;;;5056693;28;20537;-68
2022/01/13 03:17:58;;;;;;;30.45;19.20;;;;;;;;;;5074632;28;20176;-67
2022/01/13 03:20:24;;;;;;;33.57;20.10;;;;;;;;;;5056714;28;20179;-67
2022/01/13 03:22:50;;;;;;;34.42;20.30;;;;;;;;;;5074452;28;20895;-68
2022/01/13 03:25:21;;;;;;;35.50;19.80;;;;;;;;;;5074353;28;20647;-67
2022/01/13 03:27:53;;;;;;;30.50;19.77;;;;;;;;;;5074387;28;20180;-68
2022/01/13 03:30:19;;;;;;;33.90;19.17;;;;;;;;;;5074340;28;20221;-67
2022/01/13 03:32:45;;;;;;;32.93;19.50;;;;;;;;;;5073724;28;20165;-67
2022/01/13 03:35:11;;;;;;;31.50;18.23;;;;;;;;;;5073992;28;20448;-67
2022/01/13 03:37:37;;;;;;;35.63;18.77;;;;;;;;;;5074206;28;20797;-68
2022/01/13 03:40:03;;;;;;;33.67;18.95;;;;;;;;;;5056196;28;20816;-67
2022/01/13 03:42:29;;;;;;;32.35;18.55;;;;;;;;;;5074082;28;20194;-67
2022/01/13 03:44:55;;;;;;;36.28;18.42;;;;;;;;;;5074078;28;20213;-67
2022/01/13 03:47:21;;;;;;;31.40;18.15;;;;;;;;;;5074049;28;20174;-69
2022/01/13 03:49:47;;;;;;;31.40;18.47;;;;;;;;;;5056020;28;20531;-67
2022/01/13 03:52:13;;;;;;;29.27;18.17;;;;;;;;;;5073989;28;20489;-67
2022/01/13 03:54:40;;;;;;;29.70;18.00;;;;;;;;;;5074042;28;20489;-68
2022/01/13 03:57:29;;;;;;;32.23;18.90;;;;;;;;;;5055944;28;20418;-68
2022/01/13 03:59:57;;;;;;;34.22;20.15;;;;;;;;;;5049102;28;20816;-68
2022/01/13 04:02:23;;;;;;;34.33;17.63;;;;;;;;;;5092812;28;20528;-68
2022/01/13 04:04:49;;;;;;;28.57;16.27;;;;;;;;;;5093927;28;20335;-69
2022/01/13 04:07:19;;;;;;;30.52;17.60;;;;;;;;;;5093752;28;20389;-69
2022/01/13 04:09:45;;;;;;;29.45;17.67;;;;;;;;;;5093863;28;20249;-69
2022/01/13 04:12:13;;;;;;;27.90;16.40;;;;;;;;;;5093934;28;20199;-68
2022/01/13 04:17:09;;;;;;;29.73;17.30;;;;;;;;;;5093798;28;20220;-68
2022/01/13 04:19:35;;;;;;;31.23;17.70;;;;;;;;;;5092359;28;20414;-68
2022/01/13 04:22:03;;;;;;;27.47;15.70;;;;;;;;;;5093677;28;20455;-67
2022/01/13 04:24:29;;;;;;;31.42;18.35;;;;;;;;;;5093624;28;20526;-68
2022/01/13 04:26:57;;;;;;;27.13;16.63;;;;;;;;;;5093600;28;20185;-69
2022/01/13 04:29:41;;;;;;;28.60;17.73;;;;;;;;;;5092320;28;20188;-68
2022/01/13 04:32:08;;;;;;;29.90;16.60;;;;;;;;;;5093613;28;20390;-68
2022/01/13 04:34:34;;;;;;;28.83;17.03;;;;;;;;;;5092207;28;20470;-68
2022/01/13 04:37:01;;;;;;;27.43;17.63;;;;;;;;;;5092205;28;20452;-68
2022/01/13 04:39:29;;;;;;;30.80;17.73;;;;;;;;;;5093500;28;20509;-68
2022/01/13 04:41:56;;;;;;;34.87;18.20;;;;;;;;;;5093421;28;20158;-67
2022/01/13 04:44:23;;;;;;;33.93;16.30;;;;;;;;;;5093043;28;20469;-67
2022/01/13 04:46:50;;;;;;;29.33;17.37;;;;;;;;;;5093244;28;20397;-67
2022/01/13 04:49:18;;;;;;;32.90;17.73;;;;;;;;;;5093263;28;20404;-67
2022/01/13 04:51:45;;;;;;;30.53;16.63;;;;;;;;;;5093278;28;20489;-68
2022/01/13 04:54:11;;;;;;;25.60;16.23;;;;;;;;;;5093353;28;20407;-67
2022/01/13 04:59:06;;;;;;;33.50;17.37;;;;;;;;;;5083255;28;20476;-67
2022/01/13 05:01:33;;;;;;;29.00;16.43;;;;;;;;;;5072971;28;20444;-67
2022/01/13 05:03:59;;;;;;;27.27;16.03;;;;;;;;;;5072930;28;20488;-69
2022/01/13 05:06:25;;;;;;;28.10;16.83;;;;;;;;;;5054899;28;20401;-67
2022/01/13 05:08:51;;;;;;;32.67;18.47;;;;;;;;;;5072783;28;20452;-67
2022/01/13 05:11:18;;;;;;;30.47;18.10;;;;;;;;;;5072882;28;20771;-67
2022/01/13 05:13:44;;;;;;;33.28;18.65;;;;;;;;;;5072884;28;20416;-68
2022/01/13 05:16:21;;;;;;;35.88;19.63;;;;;;;;;;5072804;28;20191;-67
2022/01/13 05:21:23;;;;;;;35.60;19.17;;;;;;;;;;5072958;28;20620;-67
2022/01/13 05:23:52;;;;;;;33.45;18.83;;;;;;;;;;5072707;28;20478;-68
2022/01/13 05:26:18;;;;;;;36.25;19.25;;;;;;;;;;5072694;28;20168;-67
2022/01/13 05:28:44;;;;;;;34.67;19.50;;;;;;;;;;5054563;28;20193;-67
2022/01/13 05:31:10;;;;;;;35.10;18.83;;;;;;;;;;5072677;28;20167;-67
2022/01/13 05:33:36;;;;;;;33.87;19.30;;;;;;;;;;5072611;28;20410;-67
2022/01/13 05:36:02;;;;;;;37.72;19.88;;;;;;;;;;5072651;28;20851;-68
2022/01/13 05:38:28;;;;;;;29.87;17.27;;;;;;;;;;5072532;28;20172;-68
2022/01/13 05:40:54;;;;;;;30.55;19.17;;;;;;;;;;5072597;28;20567;-68
2022/01/13 05:43:21;;;;;;;29.20;18.17;;;;;;;;;;5072649;28;20206;-68
2022/01/13 05:45:47;;;;;;;27.65;16.30;;;;;;;;;;5072607;28;20621;-68
2022/01/13 05:48:13;;;;;;;29.20;18.17;;;;;;;;;;5072511;28;20642;-68
2022/01/13 05:50:39;;;;;;;31.92;18.73;;;;;;;;;;5072539;28;20402;-68
2022/01/13 05:53:06;;;;;;;35.10;18.70;;;;;;;;;;5072423;28;20171;-68
2022/01/13 05:55:32;;;;;;;39.00;20.60;;;;;;;;;;5054396;28;20183;-68
2022/01/13 05:57:58;;;;;;;34.05;18.60;;;;;;;;;;5075149;28;20410;-68
2022/01/13 06:00:24;;;;;;;32.10;18.52;;;;;;;;;;5076053;28;20189;-68
2022/01/13 06:02:51;;;;;;;29.60;17.77;;;;;;;;;;5075948;28;20186;-68
2022/01/13 06:05:18;;;;;;;30.15;18.38;;;;;;;;;;5076014;28;20606;-68
2022/01/13 06:07:44;;;;;;;27.08;17.15;;;;;;;;;;5075992;28;20174;-68
2022/01/13 06:10:12;;;;;;;28.33;17.07;;;;;;;;;;5075816;28;20191;-68
2022/01/13 06:12:38;;;;;;;31.87;18.07;;;;;;;;;;5075910;28;20413;-69
2022/01/13 06:15:09;;;;;;;33.50;18.97;;;;;;;;;;5075849;28;20443;-68
2022/01/13 06:17:35;;;;;;;28.77;17.10;;;;;;;;;;5057862;28;20508;-69
2022/01/13 06:20:01;;;;;;;28.83;18.38;;;;;;;;;;5075734;28;20772;-68
2022/01/13 06:22:28;;;;;;;29.43;17.03;;;;;;;;;;5075566;28;20167;-69
2022/01/13 06:24:54;;;;;;;29.50;15.63;;;;;;;;;;5075416;28;20877;-68
2022/01/13 06:27:22;;;;;;;26.17;17.60;;;;;;;;;;5075480;28;20788;-68
2022/01/13 06:29:48;;;;;;;27.58;16.88;;;;;;;;;;5075525;28;20427;-68
2022/01/13 06:32:14;;;;;;;26.80;17.70;;;;;;;;;;5057609;28;20185;-67
2022/01/13 06:34:40;;;;;;;32.33;17.60;;;;;;;;;;5075494;28;20417;-68
2022/01/13 06:37:06;;;;;;;28.87;17.57;;;;;;;;;;5075523;28;20406;-68
2022/01/13 06:39:32;;;;;;;28.73;17.40;;;;;;;;;;5057361;28;20422;-68
2022/01/13 06:41:58;;;;;;;26.30;16.97;;;;;;;;;;5075373;28;20404;-68
2022/01/13 06:44:24;;;;;;;31.10;18.23;;;;;;;;;;5075240;28;20975;-69
2022/01/13 06:46:50;;;;;;;28.40;17.57;;;;;;;;;;5075332;28;20402;-69
2022/01/13 06:49:16;;;;;;;29.90;17.73;;;;;;;;;;5075278;28;20468;-68
2022/01/13 06:51:42;;;;;;;30.83;18.40;;;;;;;;;;5075175;28;20394;-68
2022/01/13 06:54:08;;;;;;;30.77;17.47;;;;;;;;;;5075093;28;20806;-70
2022/01/13 06:56:34;;;;;;;30.23;18.87;;;;;;;;;;5057200;28;20404;-70
2022/01/13 06:59:05;;;;;;;27.50;17.27;;;;;;;;;;5074709;28;20878;-70
2022/01/13 07:01:31;;;;;;;31.80;17.50;;;;;;;;;;5057205;28;20406;-69
2022/01/13 07:03:57;;;;;;;26.63;16.47;;;;;;;;;;5074819;28;20552;-69
2022/01/13 07:06:23;;;;;;;30.60;18.10;;;;;;;;;;5074931;28;20441;-69
2022/01/13 07:08:49;;;;;;;28.20;16.60;;;;;;;;;;5074727;28;20401;-70
2022/01/13 07:11:15;;;;;;;29.23;17.43;;;;;;;;;;5074943;28;20398;-69
2022/01/13 07:13:41;;;;;;;29.30;16.80;;;;;;;;;;5074716;28;20869;-68
2022/01/13 07:16:07;;;;;;;28.00;17.37;;;;;;;;;;5056699;28;20393;-68
2022/01/13 07:18:39;;;;;;;29.50;18.17;;;;;;;;;;5056753;28;20420;-67
2022/01/13 07:21:09;;;;;;;27.83;18.00;;;;;;;;;;5074717;28;20759;-69
2022/01/13 07:23:35;;;;;;;30.30;18.00;;;;;;;;;;5074469;28;20468;-68
2022/01/13 07:26:02;;;;;;;31.63;19.33;;;;;;;;;;5074606;28;20488;-67
2022/01/13 07:28:31;;;;;;;30.13;19.80;;;;;;;;;;5074233;28;20410;-68
2022/01/13 07:30:58;;;;;;;38.42;19.92;;;;;;;;;;5074348;28;20197;-67
2022/01/13 07:33:24;;;;;;;38.05;21.38;;;;;;;;;;5074175;28;20607;-69
2022/01/13 07:35:50;;;;;;;34.03;19.73;;;;;;;;;;5074352;28;20261;-70
2022/01/13 07:38:16;;;;;;;33.42;18.70;;;;;;;;;;5074083;28;20179;-69
2022/01/13 07:40:42;;;;;;;33.88;19.20;;;;;;;;;;5074127;28;20167;-68
2022/01/13 07:43:08;;;;;;;27.45;17.77;;;;;;;;;;5073931;28;20194;-71
2022/01/13 07:45:34;;;;;;;32.95;18.75;;;;;;;;;;5074262;28;20181;-68
2022/01/13 07:48:00;;;;;;;36.90;19.20;;;;;;;;;;5073807;28;20184;-68
2022/01/13 07:50:26;;;;;;;39.97;18.13;;;;;;;;;;5073984;28;20417;-69
2022/01/13 07:52:53;;;;;;;34.13;19.00;;;;;;;;;;5055871;28;20916;-69
2022/01/13 07:55:19;;;;;;;33.20;19.93;;;;;;;;;;5074050;28;20467;-70
2022/01/13 07:57:45;;;;;;;28.10;17.23;;;;;;;;;;5073794;28;20401;-71
2022/01/13 08:00:13;;;;;;;31.10;18.70;;;;;;;;;;5073627;28;20309;-69
2022/01/13 08:02:39;;;;;;;29.02;17.45;;;;;;;;;;5073720;28;20176;-70
2022/01/13 08:05:06;;;;;;;31.83;18.20;;;;;;;;;;5073706;28;20211;-70
2022/01/13 08:07:33;;;;;;;26.90;16.30;;;;;;;;;;5055675;28;20437;-69
2022/01/13 08:09:59;;;;;;;26.40;15.63;;;;;;;;;;5073531;28;20420;-68
2022/01/13 08:12:26;;;;;;;23.97;15.07;;;;;;;;;;5073455;28;20493;-69
2022/01/13 08:14:52;;;;;;;24.33;14.60;;;;;;;;;;5055625;28;20920;-68
2022/01/13 08:20:03;;;;;;;25.50;16.10;;;;;;;;;;5073276;28;20468;-68
2022/01/13 08:22:29;;;;;;;27.13;15.40;;;;;;;;;;5073421;28;20762;-68
2022/01/13 08:24:55;;;;;;;21.50;12.10;;;;;;;;;;5073280;28;21021;-68
2022/01/13 08:27:21;;;;;;;18.10;13.17;;;;;;;;;;5073238;28;20403;-68
2022/01/13 08:29:47;;;;;;;22.40;12.83;;;;;;;;;;5073291;28;20460;-68
2022/01/13 08:32:13;;;;;;;20.90;14.43;;;;;;;;;;5073243;28;20448;-69
2022/01/13 08:34:39;;;;;;;21.17;12.80;;;;;;;;;;5073432;28;20398;-69
2022/01/13 08:37:05;;;;;;;24.43;13.80;;;;;;;;;;5073230;28;20402;-69
2022/01/13 08:39:38;;;;;;;19.73;12.10;;;;;;;;;;5073139;28;20398;-68
2022/01/13 08:42:04;;;;;;;15.13;9.40;;;;;;;;;;5055338;28;20421;-68
2022/01/13 08:44:30;;;;;;;15.90;8.70;;;;;;;;;;5073160;28;20473;-69
2022/01/13 08:46:56;;;;;;;18.43;9.57;;;;;;;;;;5073033;28;20441;-70
2022/01/13 08:49:22;;;;;;;16.90;10.37;;;;;;;;;;5055217;28;20773;-71
2022/01/13 08:51:48;;;;;;;18.10;10.07;;;;;;;;;;5073103;28;20405;-70
2022/01/13 08:54:14;;;;;;;17.80;9.77;;;;;;;;;;5073183;28;20937;-70
2022/01/13 08:56:41;;;;;;;19.10;11.10;;;;;;;;;;5073027;28;20410;-69
2022/01/13 08:59:07;;;;;;;19.77;10.10;;;;;;;;;;5070790;28;20487;-69
2022/01/13 09:01:33;;;;;;;22.27;12.00;;;;;;;;;;5093222;28;20819;-69
2022/01/13 09:03:59;;;;;;;18.90;10.23;;;;;;;;;;5093160;28;20213;-68
2022/01/13 09:06:26;;;;;;;20.88;11.77;;;;;;;;;;5093056;28;20185;-68
2022/01/13 09:08:52;;;;;;;25.50;12.50;;;;;;;;;;5092929;28;20183;-68
2022/01/13 09:11:18;;;;;;;22.30;12.00;;;;;;;;;;5093034;28;20643;-69
2022/01/13 09:13:44;;;;;;;20.08;11.30;;;;;;;;;;5093080;28;20410;-68
2022/01/13 09:16:17;;;;;;;24.38;12.68;;;;;;;;;;5093019;28;20171;-67
2022/01/13 09:21:27;;;;;;;24.27;12.57;;;;;;;;;;5093086;28;20405;-68
2022/01/13 09:23:53;;;;;;;18.48;11.70;;;;;;;;;;5092959;28;20301;-71
2022/01/13 09:26:19;;;;;;;23.88;13.40;;;;;;;;;;5092968;28;20200;-68
2022/01/13 09:28:45;;;;;;;23.35;14.38;;;;;;;;;;5092874;28;20610;-68
2022/01/13 09:31:11;;;;;;;20.33;13.07;;;;;;;;;;5093211;28;20316;-71
2022/01/13 09:33:37;;;;;;;24.53;14.20;;;;;;;;;;5096965;28;20906;-71
2022/01/13 09:36:06;;;;;;;26.87;15.07;;;;;;;;;;5096904;28;20416;-69
2022/01/13 09:38:32;;;;;;;28.20;15.93;;;;;;;;;;5096774;28;20434;-69
2022/01/13 09:40:58;;;;;;;26.40;15.80;;;;;;;;;;5096498;28;20458;-69
2022/01/13 09:43:26;;;;;;;25.60;15.60;;;;;;;;;;5095186;28;21030;-69
2022/01/13 09:45:53;;;;;;;29.33;16.30;;;;;;;;;;5095136;28;20413;-69
2022/01/13 09:48:19;;;;;;;23.10;15.03;;;;;;;;;;5096522;28;20450;-68
2022/01/13 09:50:46;;;;;;;26.33;16.40;;;;;;;;;;5096659;28;20456;-68
2022/01/13 09:53:12;;;;;;;25.47;15.63;;;;;;;;;;5096597;28;20231;-68
2022/01/13 09:55:39;;;;;;;29.07;16.33;;;;;;;;;;5096455;28;20416;-70
2022/01/13 09:58:10;;;;;;;26.77;15.10;;;;;;;;;;5094960;28;20434;-68
2022/01/13 10:00:37;;;;;;;20.50;14.47;;;;;;;;;;5076329;28;20409;-69
2022/01/13 10:03:25;;;;;;;23.77;14.73;;;;;;;;;;5075848;28;20876;-68
2022/01/13 10:05:56;;;;;;;20.30;12.87;;;;;;;;;;5076054;28;20475;-70
2022/01/13 10:08:44;;;;;;;22.10;13.63;;;;;;;;;;5075904;28;20412;-68
2022/01/13 10:11:28;;;;;;;25.37;15.23;;;;;;;;;;5075959;28;20410;-68
2022/01/13 10:14:07;;;;;;;25.40;14.20;;;;;;;;;;5075861;28;20404;-68
2022/01/13 10:16:33;;;;;;;23.83;14.10;;;;;;;;;;5057824;28;20822;-71
2022/01/13 10:18:59;;;;;;;22.03;14.10;;;;;;;;;;5075764;28;20465;-71
2022/01/13 10:21:25;;;;;;;24.03;14.23;;;;;;;;;;5075951;28;20811;-69
2022/01/13 10:24:09;;;;;;;24.20;14.20;;;;;;;;;;5057580;28;20832;-68
2022/01/13 10:26:36;;;;;;;21.50;13.00;;;;;;;;;;5075606;28;20959;-70
2022/01/13 10:29:03;;;;;;;24.53;14.20;;;;;;;;;;5075580;28;20405;-71
2022/01/13 10:31:46;;;;;;;20.40;14.13;;;;;;;;;;5075559;28;20401;-71
2022/01/13 10:34:16;;;;;;;25.47;14.40;;;;;;;;;;5075541;28;20394;-71
2022/01/13 10:36:58;;;;;;;24.20;14.93;;;;;;;;;;5075524;28;20458;-71
2022/01/13 10:39:43;;;;;;;22.57;13.57;;;;;;;;;;5075421;28;20396;-71
2022/01/13 10:45:02;;;;;;;20.70;12.47;;;;;;;;;;5044020;28;20972;-71
2022/01/13 10:47:28;;;;;;;22.40;13.00;;;;;;;;;;5057252;28;20905;-70
2022/01/13 10:49:59;;;;;;;22.30;13.60;;;;;;;;;;5075321;28;20471;-71
2022/01/13 10:52:27;;;;;;;26.17;13.90;;;;;;;;;;5075290;28;20412;-70
2022/01/13 10:54:54;;;;;;;19.63;12.10;;;;;;;;;;5075243;28;20405;-70
2022/01/13 10:57:23;;;;;;;19.20;12.20;;;;;;;;;;5075082;28;20413;-69
2022/01/13 10:59:50;;;;;;;18.83;12.57;;;;;;;;;;5074812;28;20488;-71
2022/01/13 11:02:18;;;;;;;17.53;11.50;;;;;;;;;;5075010;28;20406;-69
2022/01/13 11:04:44;;;;;;;22.17;13.10;;;;;;;;;;5074938;28;20472;-69
2022/01/13 11:07:31;;;;;;;19.73;11.97;;;;;;;;;;5074617;28;20398;-69
2022/01/13 11:10:01;;;;;;;24.80;12.90;;;;;;;;;;5074873;28;20497;-69
2022/01/13 11:12:36;;;;;;;21.33;11.77;;;;;;;;;;5056863;28;20468;-70
2022/01/13 11:15:05;;;;;;;19.47;12.97;;;;;;;;;;5074677;28;20405;-70
2022/01/13 11:17:33;;;;;;;22.40;13.33;;;;;;;;;;5074804;28;20406;-71
2022/01/13 11:20:00;;;;;;;21.83;12.23;;;;;;;;;;5056968;28;20896;-69
2022/01/13 11:22:26;;;;;;;27.07;12.87;;;;;;;;;;5074592;28;20484;-68
2022/01/13 11:24:52;;;;;;;23.63;12.40;;;;;;;;;;5074426;28;20473;-69
2022/01/13 11:27:20;;;;;;;18.50;11.90;;;;;;;;;;5074307;28;20775;-70
2022/01/13 11:29:46;;;;;;;18.50;12.00;;;;;;;;;;5074465;28;20395;-69
2022/01/13 11:32:15;;;;;;;18.50;11.90;;;;;;;;;;5074454;28;20489;-69
2022/01/13 11:34:42;;;;;;;21.83;12.87;;;;;;;;;;5074264;28;20454;-70
2022/01/13 11:37:08;;;;;;;20.13;12.80;;;;;;;;;;5074255;28;20479;-69
2022/01/13 11:39:36;;;;;;;22.20;14.33;;;;;;;;;;5056139;28;20430;-70
2022/01/13 11:42:06;;;;;;;27.90;16.67;;;;;;;;;;5074222;28;20417;-70
2022/01/13 11:44:33;;;;;;;24.07;14.90;;;;;;;;;;5074009;28;20557;-70
2022/01/13 11:46:59;;;;;;;25.87;14.43;;;;;;;;;;5074127;28;20878;-69
2022/01/13 11:49:40;;;;;;;26.67;15.77;;;;;;;;;;5073950;28;20836;-70
2022/01/13 11:52:27;;;;;;;25.40;14.80;;;;;;;;;;5073964;28;20953;-69
2022/01/13 11:54:53;;;;;;;27.90;14.93;;;;;;;;;;5073128;28;20207;-69
2022/01/13 11:57:21;;;;;;;26.33;14.27;;;;;;;;;;5073942;28;20229;-70
2022/01/13 11:59:56;;;;;;;25.73;14.00;;;;;;;;;;5073639;28;20464;-69
2022/01/13 12:02:24;;;;;;;24.63;15.57;;;;;;;;;;5073733;28;20177;-69
2022/01/13 12:05:07;;;;;;;26.17;15.43;;;;;;;;;;5073674;28;20869;-69
2022/01/13 12:07:44;;;;;;;25.50;16.20;;;;;;;;;;5073554;28;20897;-70
2022/01/13 12:10:10;;;;;;;24.73;14.00;;;;;;;;;;5055775;28;20413;-70
2022/01/13 12:12:37;;;;;;;22.80;13.80;;;;;;;;;;5073455;28;20906;-69
2022/01/13 12:15:17;;;;;;;24.97;14.33;;;;;;;;;;5073535;28;20489;-69
2022/01/13 12:17:52;;;;;;;22.07;13.57;;;;;;;;;;5055337;28;20429;-70
2022/01/13 12:20:23;;;;;;;21.50;14.13;;;;;;;;;;5073258;28;20389;-70
2022/01/13 12:23:04;;;;;;;18.67;12.17;;;;;;;;;;5073234;28;20421;-70
2022/01/13 12:25:31;;;;;;;23.23;13.33;;;;;;;;;;5073224;28;20456;-69
2022/01/13 12:27:59;;;;;;;23.13;13.90;;;;;;;;;;5072967;28;20413;-69
2022/01/13 12:30:27;;;;;;;23.43;13.63;;;;;;;;;;5073069;28;20409;-69
2022/01/13 12:32:54;;;;;;;24.33;14.30;;;;;;;;;;5073036;28;20496;-69
2022/01/13 12:35:50;;;;;;;27.00;13.40;;;;;;;;;;5072925;28;20455;-69
2022/01/13 12:38:17;;;;;;;30.53;14.47;;;;;;;;;;5041498;28;20939;-69
2022/01/13 12:40:54;;;;;;;25.80;14.50;;;;;;;;;;5072908;28;20444;-70
2022/01/13 12:46:11;;;;;;;25.20;13.47;;;;;;;;;;5073158;28;20455;-69
2022/01/13 12:48:38;;;;;;;22.33;13.50;;;;;;;;;;5072788;28;20394;-68
2022/01/13 12:51:04;;;;;;;23.30;14.00;;;;;;;;;;5072750;28;20402;-69
2022/01/13 12:53:32;;;;;;;20.93;13.20;;;;;;;;;;5072734;28;20421;-69
2022/01/13 12:56:11;;;;;;;26.40;14.53;;;;;;;;;;5072674;28;20429;-68
2022/01/13 12:58:57;;;;;;;23.77;14.17;;;;;;;;;;5072528;28;20958;-69
2022/01/13 13:01:24;;;;;;;21.90;13.53;;;;;;;;;;5055575;28;20410;-69
2022/01/13 13:04:05;;;;;;;22.87;14.30;;;;;;;;;;5072847;28;20944;-70
2022/01/13 13:06:32;;;;;;;22.73;14.00;;;;;;;;;;5059210;28;20403;-69
2022/01/13 13:09:03;;;;;;;23.20;14.80;;;;;;;;;;5079456;28;20396;-69
2022/01/13 13:11:40;;;;;;;22.57;14.17;;;;;;;;;;5079600;28;20454;-69
2022/01/13 13:14:15;;;;;;;22.80;13.63;;;;;;;;;;5061616;28;20408;-69
2022/01/13 13:16:44;;;;;;;22.80;12.90;;;;;;;;;;5079545;28;20401;-69
2022/01/13 13:19:11;;;;;;;21.97;14.10;;;;;;;;;;5079475;28;20464;-69
2022/01/13 13:21:37;;;;;;;21.00;12.60;;;;;;;;;;5079599;28;20398;-69
2022/01/13 13:24:03;;;;;;;25.30;13.13;;;;;;;;;;5079476;28;20468;-70
2022/01/13 13:26:30;;;;;;;21.80;14.60;;;;;;;;;;5079519;28;20401;-69
2022/01/13 13:28:56;;;;;;;22.93;13.50;;;;;;;;;;5079388;28;20405;-69
2022/01/13 13:31:23;;;;;;;17.80;11.87;;;;;;;;;;5079472;28;20399;-68
2022/01/13 13:33:49;;;;;;;24.20;13.33;;;;;;;;;;5079478;28;20413;-68
2022/01/13 13:36:17;;;;;;;21.40;11.57;;;;;;;;;;5079432;28;20394;-68
2022/01/13 13:38:47;;;;;;;24.93;13.80;;;;;;;;;;5079280;28;20427;-68
2022/01/13 13:41:13;;;;;;;25.23;14.43;;;;;;;;;;5079302;28;20441;-69
2022/01/13 13:43:39;;;;;;;22.60;13.50;;;;;;;;;;5079180;28;20455;-69
2022/01/13 13:46:05;;;;;;;24.13;14.63;;;;;;;;;;5079340;28;20477;-68
2022/01/13 13:48:31;;;;;;;21.53;12.80;;;;;;;;;;5079210;28;20436;-69
2022/01/13 13:50:57;;;;;;;19.27;12.93;;;;;;;;;;5079200;28;20410;-71
2022/01/13 13:53:24;;;;;;;21.30;13.50;;;;;;;;;;5079271;28;20415;-69
2022/01/13 13:55:57;;;;;;;17.90;12.13;;;;;;;;;;5079325;28;20445;-69
2022/01/13 13:58:23;;;;;;;22.37;13.83;;;;;;;;;;5065040;28;20555;-68
2022/01/13 14:00:56;;;;;;;20.70;13.57;;;;;;;;;;5099588;28;20901;-69
2022/01/13 14:03:35;;;;;;;23.10;12.73;;;;;;;;;;5099457;28;20452;-69
2022/01/13 14:06:01;;;;;;;18.30;12.40;;;;;;;;;;5099398;28;20408;-68
2022/01/13 14:08:29;;;;;;;28.20;14.70;;;;;;;;;;5098007;28;20431;-69
2022/01/13 14:11:08;;;;;;;23.80;13.03;;;;;;;;;;5099363;28;20469;-69
2022/01/13 14:13:34;;;;;;;21.80;13.57;;;;;;;;;;5099409;28;20462;-67
2022/01/13 14:16:00;;;;;;;20.87;13.07;;;;;;;;;;5099222;28;20882;-69
2022/01/13 14:18:26;;;;;;;25.13;13.77;;;;;;;;;;5095708;28;20753;-68
2022/01/13 14:20:57;;;;;;;23.37;13.37;;;;;;;;;;5096136;28;20408;-69
2022/01/13 14:23:26;;;;;;;22.40;13.63;;;;;;;;;;5095910;28;20554;-70
2022/01/13 14:25:54;;;;;;;19.73;13.47;;;;;;;;;;5096067;28;20500;-70
2022/01/13 14:28:19;;;;;;;19.40;12.80;;;;;;;;;;5095630;28;20494;-69
2022/01/13 14:30:46;;;;;;;21.43;13.00;;;;;;;;;;5095966;28;20491;-69
2022/01/13 14:33:18;;;;;;;21.97;12.43;;;;;;;;;;5095874;28;20411;-68
2022/01/13 14:35:48;;;;;;;17.30;12.40;;;;;;;;;;5095812;28;20483;-68
2022/01/13 14:38:15;;;;;;;19.93;12.53;;;;;;;;;;5095562;28;20442;-70
2022/01/13 14:40:45;;;;;;;18.93;12.40;;;;;;;;;;5095581;28;20411;-69
2022/01/13 14:43:18;;;;;;;25.83;12.87;;;;;;;;;;5095322;28;20419;-69
2022/01/13 14:45:45;;;;;;;21.00;11.70;;;;;;;;;;5095376;28;20412;-69
2022/01/13 14:48:12;;;;;;;22.40;13.60;;;;;;;;;;5095231;28;20404;-69
2022/01/13 14:50:38;;;;;;;20.20;13.20;;;;;;;;;;5095336;28;20508;-68
2022/01/13 14:53:04;;;;;;;23.67;12.33;;;;;;;;;;5095135;28;20926;-69
2022/01/13 14:55:30;;;;;;;18.27;11.23;;;;;;;;;;5095219;28;20496;-69
2022/01/13 14:57:56;;;;;;;23.10;12.47;;;;;;;;;;5093781;28;20418;-69
2022/01/13 15:00:23;;;;;;;23.00;12.43;;;;;;;;;;5075007;28;20955;-68